createdAt,value
2018-03-15T00:01:00.542Z,19.57
2018-03-15T00:03:34.660Z,17.67
2018-03-15T00:06:01.705Z,24.20
2018-03-15T00:08:28.930Z,21.43
2018-03-15T00:10:56.536Z,13.40
2018-03-15T00:13:23.784Z,23.53
2018-03-15T00:15:51.653Z,22.83
2018-03-15T00:18:18.705Z,18.43
2018-03-15T00:20:45.752Z,14.63
2018-03-15T00:23:14.440Z,21.03
2018-03-15T00:25:41.482Z,19.83
2018-03-15T00:28:08.531Z,12.33
2018-03-15T00:30:35.586Z,20.53
2018-03-15T00:33:02.629Z,22.83
2018-03-15T00:35:29.582Z,20.93
2018-03-15T00:37:56.622Z,20.93
2018-03-15T00:40:25.147Z,21.03
2018-03-15T00:42:52.098Z,20.83
2018-03-15T00:45:19.106Z,22.73
2018-03-15T00:47:46.147Z,19.63
2018-03-15T00:50:13.197Z,20.23
2018-03-15T00:52:41.173Z,20.17
2018-03-15T00:55:08.215Z,22.23
2018-03-15T00:57:35.264Z,23.27
2018-03-15T01:00:02.210Z,25.40
2018-03-15T01:05:10.644Z,22.97
2018-03-15T01:07:37.902Z,26.70
2018-03-15T01:10:04.946Z,24.90
2018-03-15T01:12:31.994Z,23.50
2018-03-15T01:15:01.127Z,23.37
2018-03-15T01:17:28.139Z,24.83
2018-03-15T01:19:56.215Z,25.17
2018-03-15T01:22:24.387Z,23.50
2018-03-15T01:24:51.434Z,24.80
2018-03-15T01:27:19.742Z,24.63
2018-03-15T01:29:46.761Z,24.27
2018-03-15T01:32:13.810Z,24.73
2018-03-15T01:34:40.762Z,22.60
2018-03-15T01:37:07.808Z,23.53
2018-03-15T01:39:34.859Z,23.20
2018-03-15T01:42:01.901Z,23.77
2018-03-15T01:44:28.960Z,22.83
2018-03-15T01:46:56.764Z,23.43
2018-03-15T01:49:23.866Z,23.10
2018-03-15T01:51:52.390Z,21.97
2018-03-15T01:54:19.414Z,23.93
2018-03-15T01:56:46.450Z,22.53
2018-03-15T01:59:13.493Z,21.90
2018-03-15T02:01:40.541Z,22.37
2018-03-15T02:04:07.596Z,21.90
2018-03-15T02:06:34.643Z,21.87
2018-03-15T02:09:01.687Z,23.30
2018-03-15T02:11:28.742Z,22.67
2018-03-15T02:13:55.784Z,21.93
2018-03-15T02:16:22.833Z,21.47
2018-03-15T02:18:49.887Z,21.43
2018-03-15T02:21:17.441Z,20.93
2018-03-15T02:23:44.593Z,21.47
2018-03-15T02:26:11.647Z,19.10
2018-03-15T02:28:38.694Z,20.37
2018-03-15T02:31:05.738Z,20.50
2018-03-15T02:33:32.793Z,20.80
2018-03-15T02:35:59.865Z,21.87
2018-03-15T02:38:26.885Z,21.77
2018-03-15T02:40:53.939Z,21.07
2018-03-15T02:43:20.984Z,22.73
2018-03-15T02:45:48.030Z,20.40
2018-03-15T02:48:15.084Z,20.80
2018-03-15T02:50:43.770Z,20.93
2018-03-15T02:53:10.812Z,20.53
2018-03-15T02:55:37.765Z,21.00
2018-03-15T02:58:04.711Z,21.57
2018-03-15T03:00:31.760Z,21.50
2018-03-15T03:02:58.808Z,20.50
2018-03-15T03:05:25.856Z,20.07
2018-03-15T03:07:53.105Z,20.93
2018-03-15T03:10:20.155Z,20.00
2018-03-15T03:12:47.614Z,19.87
2018-03-15T03:15:14.666Z,18.80
2018-03-15T03:17:41.709Z,18.63
2018-03-15T03:20:09.371Z,17.60
2018-03-15T03:22:36.428Z,18.07
2018-03-15T03:25:03.468Z,17.43
2018-03-15T03:27:30.524Z,17.37
2018-03-15T03:29:57.565Z,17.83
2018-03-15T03:32:24.519Z,17.93
2018-03-15T03:34:51.456Z,17.40
2018-03-15T03:37:18.711Z,16.60
2018-03-15T03:39:45.763Z,16.20
2018-03-15T03:42:12.707Z,16.03
2018-03-15T03:44:40.676Z,17.17
2018-03-15T03:47:07.730Z,15.50
2018-03-15T03:49:36.155Z,15.03
2018-03-15T03:52:03.153Z,14.50
2018-03-15T03:54:30.200Z,15.43
2018-03-15T03:56:57.253Z,12.70
2018-03-15T03:59:24.611Z,13.80
2018-03-15T04:01:52.677Z,12.63
2018-03-15T04:04:20.751Z,13.30
2018-03-15T04:06:49.175Z,12.50
2018-03-15T04:09:16.114Z,12.30
2018-03-15T04:11:43.125Z,11.67
2018-03-15T04:14:10.178Z,12.27
2018-03-15T04:16:37.841Z,12.87
2018-03-15T04:19:04.883Z,13.37
2018-03-15T04:21:31.932Z,13.83
2018-03-15T04:24:00.461Z,14.30
2018-03-15T04:26:27.463Z,14.10
2018-03-15T04:28:54.517Z,13.80
2018-03-15T04:31:21.560Z,13.40
2018-03-15T04:33:48.609Z,14.43
2018-03-15T04:36:15.663Z,14.97
2018-03-15T04:38:42.708Z,15.50
2018-03-15T04:41:09.658Z,14.17
2018-03-15T04:43:36.598Z,15.03
2018-03-15T04:46:03.652Z,15.00
2018-03-15T04:48:30.696Z,16.23
2018-03-15T04:50:57.682Z,15.30
2018-03-15T04:53:24.692Z,17.00
2018-03-15T04:55:52.659Z,16.50
2018-03-15T04:58:19.647Z,16.90
2018-03-15T05:00:48.033Z,15.43
2018-03-15T05:03:15.033Z,15.70
2018-03-15T05:05:42.061Z,13.43
2018-03-15T05:08:09.029Z,11.07
2018-03-15T05:10:38.233Z,12.53
2018-03-15T05:13:05.276Z,11.73
2018-03-15T05:15:32.325Z,12.43
2018-03-15T05:17:59.378Z,13.90
2018-03-15T05:20:26.319Z,13.43
2018-03-15T05:22:53.572Z,14.37
2018-03-15T05:25:20.620Z,13.13
2018-03-15T05:27:47.772Z,13.67
2018-03-15T05:30:14.827Z,12.73
2018-03-15T05:32:41.869Z,12.00
2018-03-15T05:35:10.156Z,11.43
2018-03-15T05:37:37.091Z,12.20
2018-03-15T05:40:04.141Z,11.13
2018-03-15T05:42:31.194Z,10.93
2018-03-15T05:44:58.072Z,10.77
2018-03-15T05:47:25.081Z,10.60
2018-03-15T05:49:52.131Z,11.03
2018-03-15T05:52:19.183Z,12.63
2018-03-15T05:54:46.227Z,32.83
2018-03-15T05:57:13.487Z,42.00
2018-03-15T05:59:40.532Z,15.60
2018-03-15T06:02:07.582Z,40.70
2018-03-15T06:04:34.940Z,24.77
2018-03-15T06:07:02.107Z,11.27
2018-03-15T06:09:30.713Z,10.67
2018-03-15T06:11:58.851Z,12.93
2018-03-15T06:14:27.018Z,13.70
2018-03-15T06:16:54.077Z,10.87
2018-03-15T06:19:21.013Z,10.37
2018-03-15T06:21:49.444Z,11.33
2018-03-15T06:24:16.851Z,10.90
2018-03-15T06:26:44.924Z,10.67
2018-03-15T06:29:11.980Z,11.03
2018-03-15T06:31:39.635Z,11.50
2018-03-15T06:34:06.710Z,10.23
2018-03-15T06:36:33.737Z,11.43
2018-03-15T06:39:01.231Z,12.90
2018-03-15T06:41:28.237Z,12.00
2018-03-15T06:43:55.189Z,11.57
2018-03-15T06:46:22.233Z,14.20
2018-03-15T06:48:49.998Z,9.93
2018-03-15T06:51:17.046Z,9.63
2018-03-15T06:53:44.100Z,10.03
2018-03-15T06:56:11.144Z,9.30
2018-03-15T06:58:38.172Z,12.53
2018-03-15T07:01:06.265Z,9.93
2018-03-15T07:03:33.255Z,14.10
2018-03-15T07:06:01.181Z,8.80
2018-03-15T07:08:28.235Z,9.07
2018-03-15T07:10:56.404Z,7.97
2018-03-15T07:13:23.459Z,7.93
2018-03-15T07:15:50.503Z,9.40
2018-03-15T07:18:17.497Z,8.47
2018-03-15T07:20:44.703Z,26.80
2018-03-15T07:23:11.652Z,18.87
2018-03-15T07:25:38.695Z,8.67
2018-03-15T07:28:06.870Z,24.33
2018-03-15T07:30:34.020Z,17.20
2018-03-15T07:33:01.074Z,16.23
2018-03-15T07:35:28.125Z,12.67
2018-03-15T07:37:56.396Z,8.70
2018-03-15T07:40:23.445Z,16.87
2018-03-15T07:42:50.807Z,10.30
2018-03-15T07:45:18.465Z,9.00
2018-03-15T07:47:45.511Z,9.50
2018-03-15T07:50:12.565Z,9.70
2018-03-15T07:52:40.837Z,8.10
2018-03-15T07:55:07.992Z,7.30
2018-03-15T07:57:34.940Z,7.57
2018-03-15T08:00:02.091Z,7.70
2018-03-15T08:02:29.748Z,7.60
2018-03-15T08:04:57.103Z,6.87
2018-03-15T08:07:24.158Z,7.53
2018-03-15T08:09:52.229Z,7.17
2018-03-15T08:12:19.273Z,6.63
2018-03-15T08:14:48.098Z,6.83
2018-03-15T08:17:15.111Z,6.37
2018-03-15T08:19:44.826Z,7.10
2018-03-15T08:22:11.874Z,6.77
2018-03-15T08:24:38.920Z,7.07
2018-03-15T08:27:05.973Z,6.93
2018-03-15T08:32:30.788Z,6.97
2018-03-15T08:34:58.345Z,6.83
2018-03-15T08:37:26.418Z,7.37
2018-03-15T08:39:53.466Z,7.40
2018-03-15T08:42:21.540Z,7.40
2018-03-15T08:44:48.596Z,7.37
2018-03-15T08:47:15.636Z,6.70
2018-03-15T08:49:42.686Z,6.93
2018-03-15T08:52:09.840Z,7.17
2018-03-15T08:54:36.785Z,6.57
2018-03-15T08:57:03.834Z,6.90
2018-03-15T08:59:30.886Z,5.40
2018-03-15T09:01:57.930Z,4.67
2018-03-15T09:04:25.016Z,4.67
2018-03-15T09:06:52.033Z,4.40
2018-03-15T09:09:18.972Z,4.67
2018-03-15T09:11:46.027Z,4.60
2018-03-15T09:14:13.067Z,4.93
2018-03-15T09:16:40.116Z,4.90
2018-03-15T09:19:07.169Z,4.83
2018-03-15T09:21:34.224Z,5.00
2018-03-15T09:24:01.209Z,3.97
2018-03-15T09:26:28.207Z,4.77
2018-03-15T09:28:55.255Z,4.00
2018-03-15T09:31:22.202Z,4.30
2018-03-15T09:33:49.200Z,5.57
2018-03-15T09:36:16.198Z,5.60
2018-03-15T09:38:43.245Z,3.90
2018-03-15T09:41:10.302Z,5.20
2018-03-15T09:43:37.342Z,4.70
2018-03-15T09:46:04.404Z,5.07
2018-03-15T09:48:31.444Z,4.37
2018-03-15T09:50:58.488Z,4.97
2018-03-15T09:53:26.668Z,4.07
2018-03-15T09:55:55.679Z,3.70
2018-03-15T09:58:24.044Z,4.00
2018-03-15T10:00:51.741Z,4.17
2018-03-15T10:03:18.746Z,4.50
2018-03-15T10:05:45.854Z,4.70
2018-03-15T10:08:13.259Z,4.83
2018-03-15T10:10:42.076Z,3.67
2018-03-15T10:13:09.444Z,3.87
2018-03-15T10:15:36.755Z,3.60
2018-03-15T10:18:03.802Z,4.00
2018-03-15T10:20:30.857Z,4.43
2018-03-15T10:22:57.899Z,3.40
2018-03-15T10:25:26.390Z,3.50
2018-03-15T10:27:52.924Z,3.30
2018-03-15T10:30:20.173Z,3.27
2018-03-15T10:33:02.070Z,3.97
2018-03-15T10:35:29.124Z,4.07
2018-03-15T10:37:56.166Z,4.13
2018-03-15T10:40:23.214Z,4.13
2018-03-15T10:42:50.160Z,3.57
2018-03-15T10:45:17.208Z,3.77
2018-03-15T10:47:44.199Z,3.67
2018-03-15T10:50:11.205Z,3.50
2018-03-15T10:52:38.257Z,3.73
2018-03-15T10:55:05.301Z,3.77
2018-03-15T10:57:33.577Z,3.70
2018-03-15T11:00:00.675Z,3.40
2018-03-15T11:02:33.408Z,3.70
2018-03-15T11:05:01.277Z,3.63
2018-03-15T11:07:30.070Z,5.57
2018-03-15T11:09:57.114Z,4.10
2018-03-15T11:12:24.163Z,3.47
2018-03-15T11:14:51.217Z,3.90
2018-03-15T11:17:19.490Z,4.30
2018-03-15T11:19:46.489Z,4.13
2018-03-15T11:22:13.427Z,4.03
2018-03-15T11:24:41.663Z,4.20
2018-03-15T11:27:08.706Z,4.13
2018-03-15T11:29:36.886Z,5.03
2018-03-15T11:32:03.929Z,5.53
2018-03-15T11:34:32.726Z,6.07
2018-03-15T11:37:03.416Z,6.60
2018-03-15T11:39:30.406Z,6.03
2018-03-15T11:41:57.448Z,6.83
2018-03-15T11:44:25.630Z,6.77
2018-03-15T11:46:52.676Z,5.80
2018-03-15T11:49:20.240Z,5.67
2018-03-15T11:51:47.287Z,7.00
2018-03-15T11:54:14.235Z,5.47
2018-03-15T11:56:47.222Z,5.30
2018-03-15T11:59:14.269Z,4.47
2018-03-15T12:01:41.316Z,5.10
2018-03-15T12:04:08.370Z,4.70
2018-03-15T12:06:35.409Z,5.17
2018-03-15T12:09:02.458Z,4.93
2018-03-15T12:11:29.658Z,5.07
2018-03-15T12:13:56.759Z,4.13
2018-03-15T12:16:23.814Z,4.17
2018-03-15T12:18:50.858Z,4.30
2018-03-15T12:21:17.906Z,3.70
2018-03-15T12:23:44.855Z,4.03
2018-03-15T12:26:11.901Z,4.27
2018-03-15T12:28:38.954Z,3.90
2018-03-15T12:31:06.007Z,4.20
2018-03-15T12:33:33.045Z,3.60
2018-03-15T12:35:59.993Z,4.07
2018-03-15T12:38:27.045Z,3.83
2018-03-15T12:40:54.094Z,4.60
2018-03-15T12:43:22.167Z,4.40
2018-03-15T12:45:49.230Z,4.10
2018-03-15T12:48:16.259Z,4.00
2018-03-15T12:50:43.244Z,3.77
2018-03-15T12:53:10.253Z,4.93
2018-03-15T12:55:37.203Z,4.30
2018-03-15T12:58:04.922Z,4.37
2018-03-15T13:00:31.918Z,4.07
2018-03-15T13:03:00.445Z,4.70
2018-03-15T13:05:27.447Z,4.60
2018-03-15T13:08:02.729Z,4.40
2018-03-15T13:10:29.717Z,4.40
2018-03-15T13:12:56.723Z,5.33
2018-03-15T13:15:24.232Z,5.27
2018-03-15T13:17:51.233Z,5.00
2018-03-15T13:20:18.274Z,5.07
2018-03-15T13:22:45.937Z,4.53
2018-03-15T13:25:14.113Z,5.37
2018-03-15T13:27:41.160Z,5.57
2018-03-15T13:30:08.723Z,6.43
2018-03-15T13:32:35.769Z,6.07
2018-03-15T13:35:02.755Z,7.73
2018-03-15T13:37:29.712Z,7.23
2018-03-15T13:39:56.710Z,8.43
2018-03-15T13:42:23.760Z,8.73
2018-03-15T13:44:50.813Z,8.07
2018-03-15T13:47:17.964Z,8.43
2018-03-15T13:49:44.939Z,7.83
2018-03-15T13:52:11.963Z,7.80
2018-03-15T13:54:39.002Z,7.83
2018-03-15T13:57:06.050Z,6.63
2018-03-15T13:59:33.110Z,8.80
2018-03-15T14:02:00.148Z,8.87
2018-03-15T14:04:28.117Z,6.73
2018-03-15T14:06:55.171Z,6.43
2018-03-15T14:09:22.215Z,6.83
2018-03-15T14:11:49.264Z,6.20
2018-03-15T14:14:16.317Z,6.13
2018-03-15T14:16:43.872Z,6.17
2018-03-15T14:19:11.234Z,6.97
2018-03-15T14:21:38.219Z,9.60
2018-03-15T14:24:05.229Z,11.43
2018-03-15T14:26:32.271Z,10.77
2018-03-15T14:28:59.319Z,10.07
2018-03-15T14:31:26.373Z,10.53
2018-03-15T14:33:53.417Z,10.60
2018-03-15T14:36:20.466Z,10.27
2018-03-15T14:38:47.520Z,10.17
2018-03-15T14:41:14.562Z,9.43
2018-03-15T14:43:42.227Z,10.33
2018-03-15T14:46:09.442Z,10.87
2018-03-15T14:48:36.431Z,10.17
2018-03-15T14:51:03.581Z,10.50
2018-03-15T14:53:31.284Z,11.53
2018-03-15T14:55:58.831Z,9.83
2018-03-15T14:58:27.842Z,8.73
2018-03-15T15:00:54.792Z,8.27
2018-03-15T15:03:21.727Z,7.87
2018-03-15T15:05:49.451Z,6.87
2018-03-15T15:08:17.523Z,6.37
2018-03-15T15:10:44.572Z,6.60
2018-03-15T15:13:12.854Z,7.40
2018-03-15T15:15:39.899Z,7.80
2018-03-15T15:18:06.946Z,5.70
2018-03-15T15:20:34.000Z,5.40
2018-03-15T15:23:02.248Z,4.93
2018-03-15T15:25:29.229Z,5.17
2018-03-15T15:27:56.267Z,7.10
2018-03-15T15:30:24.447Z,6.27
2018-03-15T15:32:51.698Z,5.20
2018-03-15T15:35:18.683Z,4.83
2018-03-15T15:37:45.690Z,3.83
2018-03-15T15:40:12.745Z,4.03
2018-03-15T15:42:40.399Z,4.53
2018-03-15T15:45:07.967Z,4.23
2018-03-15T15:47:35.010Z,7.83
2018-03-15T15:50:02.058Z,9.33
2018-03-15T15:52:29.005Z,6.07
2018-03-15T15:54:56.053Z,7.03
2018-03-15T15:57:23.106Z,4.53
2018-03-15T15:59:50.157Z,5.20
2018-03-15T16:02:17.203Z,5.47
2018-03-15T16:04:45.482Z,4.57
2018-03-15T16:07:12.525Z,3.43
2018-03-15T16:09:39.579Z,2.57
2018-03-15T16:12:07.857Z,2.90
2018-03-15T16:14:34.900Z,2.60
2018-03-15T16:17:01.947Z,2.47
2018-03-15T16:19:28.937Z,2.70
2018-03-15T16:21:58.614Z,3.00
2018-03-15T16:24:25.653Z,2.73
2018-03-15T16:26:53.321Z,2.40
2018-03-15T16:29:20.419Z,5.10
2018-03-15T16:31:47.414Z,10.73
2018-03-15T16:34:14.672Z,11.77
2018-03-15T16:36:42.329Z,12.17
2018-03-15T16:39:09.379Z,12.40
2018-03-15T16:41:36.431Z,11.30
2018-03-15T16:44:03.474Z,10.23
2018-03-15T16:46:30.523Z,10.67
2018-03-15T16:48:58.016Z,10.33
2018-03-15T16:51:25.444Z,10.73
2018-03-15T16:53:52.493Z,10.17
2018-03-15T16:56:19.536Z,10.60
2018-03-15T16:58:49.145Z,10.03
2018-03-15T17:01:16.193Z,8.63
2018-03-15T17:03:43.754Z,9.60
2018-03-15T17:06:11.417Z,10.37
2018-03-15T17:08:38.470Z,11.00
2018-03-15T17:11:05.515Z,12.20
2018-03-15T17:13:32.562Z,12.10
2018-03-15T17:15:59.616Z,10.80
2018-03-15T17:18:26.607Z,10.50
2018-03-15T17:20:54.840Z,10.80
2018-03-15T17:23:21.882Z,11.10
2018-03-15T17:25:50.002Z,13.43
2018-03-15T17:28:17.004Z,11.60
2018-03-15T17:30:44.978Z,11.47
2018-03-15T17:33:12.022Z,11.90
2018-03-15T17:35:39.070Z,161.87
2018-03-15T17:38:06.125Z,93.63
2018-03-15T17:40:33.116Z,18.57
2018-03-15T17:43:00.060Z,12.10
2018-03-15T17:45:27.061Z,13.13
2018-03-15T17:47:54.048Z,13.70
2018-03-15T17:50:21.488Z,12.53
2018-03-15T17:52:48.615Z,13.67
2018-03-15T17:55:15.663Z,9.50
2018-03-15T17:57:43.025Z,9.80
2018-03-15T18:00:10.037Z,14.47
2018-03-15T18:02:37.020Z,28.10
2018-03-15T18:05:04.063Z,18.40
2018-03-15T18:07:31.110Z,23.93
2018-03-15T18:09:58.165Z,18.40
2018-03-15T18:12:25.208Z,7.40
2018-03-15T18:14:52.257Z,12.70
2018-03-15T18:17:19.248Z,11.20
2018-03-15T18:19:46.462Z,9.77
2018-03-15T18:22:13.505Z,8.90
2018-03-15T18:24:40.457Z,9.73
2018-03-15T18:27:08.932Z,11.50
2018-03-15T18:29:36.191Z,10.33
2018-03-15T18:32:03.753Z,10.83
2018-03-15T18:34:31.921Z,9.37
2018-03-15T18:36:58.867Z,8.57
2018-03-15T18:39:27.146Z,8.37
2018-03-15T18:41:54.198Z,9.17
2018-03-15T18:44:21.140Z,6.33
2018-03-15T18:46:48.701Z,6.90
2018-03-15T18:49:15.748Z,7.17
2018-03-15T18:51:42.804Z,8.10
2018-03-15T18:54:09.890Z,8.90
2018-03-15T18:56:36.899Z,10.07
2018-03-15T18:59:04.421Z,8.87
2018-03-15T19:01:31.822Z,9.27
2018-03-15T19:03:58.759Z,10.10
2018-03-15T19:06:25.809Z,9.07
2018-03-15T19:08:52.859Z,9.53
2018-03-15T19:11:20.011Z,9.53
2018-03-15T19:13:47.360Z,9.60
2018-03-15T19:16:14.512Z,9.90
2018-03-15T19:18:41.559Z,10.53
2018-03-15T19:21:09.891Z,10.73
2018-03-15T19:23:36.888Z,9.87
2018-03-15T19:26:04.957Z,8.20
2018-03-15T19:28:32.007Z,8.93
2018-03-15T19:31:08.783Z,5.07
2018-03-15T19:33:36.350Z,3.97
2018-03-15T19:36:03.393Z,4.07
2018-03-15T19:38:30.345Z,6.03
2018-03-15T19:40:57.592Z,12.07
2018-03-15T19:43:25.767Z,13.63
2018-03-15T19:45:52.816Z,11.23
2018-03-15T19:48:21.097Z,5.80
2018-03-15T19:50:48.140Z,4.80
2018-03-15T19:53:15.189Z,3.60
2018-03-15T19:55:42.341Z,4.20
2018-03-15T19:58:09.290Z,4.50
2018-03-15T20:00:36.285Z,5.27
2018-03-15T20:03:06.154Z,3.97
2018-03-15T20:05:33.404Z,5.20
2018-03-15T20:08:01.444Z,4.87
2018-03-15T20:10:28.728Z,4.93
2018-03-15T20:12:57.051Z,5.00
2018-03-15T20:15:24.673Z,4.90
2018-03-15T20:17:51.716Z,8.93
2018-03-15T20:20:18.769Z,7.77
2018-03-15T20:22:51.551Z,5.10
2018-03-15T20:25:18.597Z,5.37
2018-03-15T20:27:51.550Z,5.17
2018-03-15T20:30:18.529Z,6.17
2018-03-15T20:32:51.320Z,5.60
2018-03-15T20:35:18.361Z,5.17
2018-03-15T20:37:46.236Z,5.97
2018-03-15T20:40:19.013Z,5.47
2018-03-15T20:42:46.879Z,6.70
2018-03-15T20:45:19.601Z,5.20
2018-03-15T20:47:52.549Z,5.10
2018-03-15T20:50:19.808Z,5.20
2018-03-15T20:52:46.850Z,5.37
2018-03-15T20:55:14.821Z,5.40
2018-03-15T20:57:42.181Z,5.60
2018-03-15T21:00:09.226Z,5.33
2018-03-15T21:02:36.272Z,5.40
2018-03-15T21:05:03.260Z,4.77
2018-03-15T21:07:30.269Z,5.03
2018-03-15T21:09:57.322Z,4.63
2018-03-15T21:12:24.364Z,4.27
2018-03-15T21:14:51.515Z,7.00
2018-03-15T21:17:18.665Z,6.80
2018-03-15T21:19:45.715Z,6.20
2018-03-15T21:22:12.769Z,5.90
2018-03-15T21:24:39.851Z,4.87
2018-03-15T21:27:07.872Z,4.27
2018-03-15T21:29:35.854Z,4.67
2018-03-15T21:32:02.838Z,4.07
2018-03-15T21:34:29.848Z,4.70
2018-03-15T21:36:56.999Z,4.57
2018-03-15T21:39:24.070Z,4.30
2018-03-15T21:41:52.326Z,3.00
2018-03-15T21:44:20.859Z,2.80
2018-03-15T21:46:49.627Z,3.40
2018-03-15T21:49:16.651Z,3.40
2018-03-15T21:51:44.516Z,2.37
2018-03-15T21:54:11.568Z,3.30
2018-03-15T21:56:38.618Z,2.73
2018-03-15T21:59:05.807Z,2.60
2018-03-15T22:01:33.737Z,1.93
2018-03-15T22:04:00.720Z,2.37
2018-03-15T22:06:30.020Z,1.80
2018-03-15T22:08:57.028Z,2.27
2018-03-15T22:11:24.178Z,3.10
2018-03-15T22:13:52.461Z,2.50
2018-03-15T22:16:19.504Z,2.37
2018-03-15T22:18:46.553Z,2.83
2018-03-15T22:21:14.529Z,2.50
2018-03-15T22:23:41.573Z,3.10
2018-03-15T22:26:09.646Z,1.93
2018-03-15T22:28:36.902Z,2.83
2018-03-15T22:31:03.946Z,2.03
2018-03-15T22:33:30.996Z,2.30
2018-03-15T22:35:58.863Z,2.80
2018-03-15T22:38:25.910Z,2.90
2018-03-15T22:40:53.778Z,2.80
2018-03-15T22:43:21.237Z,2.97
2018-03-15T22:45:48.284Z,2.03
2018-03-15T22:48:15.339Z,3.23
2018-03-15T22:50:42.279Z,2.90
2018-03-15T22:53:09.334Z,3.60
2018-03-15T22:55:36.379Z,3.73
2018-03-15T22:58:03.426Z,3.43
2018-03-15T23:00:31.497Z,3.23
2018-03-15T23:02:58.443Z,3.40
2018-03-15T23:05:25.493Z,3.30
2018-03-15T23:07:52.644Z,3.17
2018-03-15T23:10:19.794Z,2.60
2018-03-15T23:12:46.848Z,3.23
2018-03-15T23:15:13.901Z,2.87
2018-03-15T23:17:41.862Z,2.90
2018-03-15T23:20:09.380Z,2.80
2018-03-15T23:22:37.495Z,2.60
2018-03-15T23:25:04.543Z,2.17
2018-03-15T23:27:32.824Z,2.10
2018-03-15T23:29:59.869Z,1.90
2018-03-15T23:32:27.405Z,2.07
2018-03-15T23:34:54.448Z,2.10
2018-03-15T23:37:21.600Z,1.70
2018-03-15T23:39:49.572Z,1.70
2018-03-15T23:42:16.623Z,2.40
2018-03-15T23:44:43.670Z,1.70
2018-03-15T23:47:11.849Z,1.87
2018-03-15T23:49:38.889Z,1.80
2018-03-15T23:52:05.937Z,1.80
2018-03-15T23:54:33.191Z,1.87
2018-03-15T23:57:01.468Z,1.87
2018-03-15T23:59:28.721Z,1.57
